createdAt,value
2022-10-28T00:00:49.784Z,10.90
2022-10-28T00:03:43.676Z,9.70
2022-10-28T00:06:35.473Z,9.50
2022-10-28T00:09:24.243Z,9.90
2022-10-28T00:12:12.085Z,10.70
2022-10-28T00:14:59.727Z,11.40
2022-10-28T00:17:47.203Z,9.40
2022-10-28T00:20:34.753Z,11.40
2022-10-28T00:23:23.650Z,12.00
2022-10-28T00:26:19.251Z,12.40
2022-10-28T00:29:13.990Z,12.20
2022-10-28T00:32:01.660Z,12.30
2022-10-28T00:34:49.329Z,12.00
2022-10-28T00:37:37.309Z,11.30
2022-10-28T00:40:25.495Z,10.90
2022-10-28T00:43:13.229Z,11.70
2022-10-28T00:46:01.971Z,11.00
2022-10-28T00:48:55.709Z,10.80
2022-10-28T00:51:45.989Z,11.90
2022-10-28T00:54:35.011Z,12.60
2022-10-28T00:57:29.143Z,11.60
2022-10-28T01:00:17.043Z,11.90
2022-10-28T01:03:05.000Z,11.90
2022-10-28T01:05:53.829Z,12.80
2022-10-28T01:08:41.220Z,12.20
2022-10-28T01:11:41.142Z,12.10
2022-10-28T01:14:37.245Z,10.60
2022-10-28T01:17:39.722Z,10.00
2022-10-28T01:20:45.306Z,12.00
2022-10-28T01:24:08.607Z,13.00
2022-10-28T01:27:18.194Z,11.90
2022-10-28T01:30:15.118Z,11.80
2022-10-28T01:33:16.429Z,12.50
2022-10-28T01:36:24.907Z,12.10
2022-10-28T01:39:21.784Z,12.40
2022-10-28T01:42:18.388Z,12.00
2022-10-28T01:45:31.091Z,12.80
2022-10-28T01:51:51.289Z,13.50
2022-10-28T01:54:42.100Z,12.90
2022-10-28T01:57:33.685Z,14.10
2022-10-28T02:00:21.464Z,10.70
2022-10-28T02:03:10.034Z,12.90
2022-10-28T02:06:00.603Z,12.70
2022-10-28T02:09:06.199Z,12.70
2022-10-28T02:12:14.810Z,12.30
2022-10-28T02:15:15.733Z,12.50
2022-10-28T02:18:18.459Z,12.30
2022-10-28T02:21:25.186Z,13.60
2022-10-28T02:24:32.627Z,13.70
2022-10-28T02:27:40.816Z,12.10
2022-10-28T02:30:54.600Z,13.40
2022-10-28T02:33:44.705Z,12.00
2022-10-28T02:36:37.497Z,12.90
2022-10-28T02:39:42.658Z,12.00
2022-10-28T02:42:41.231Z,12.70
2022-10-28T02:45:43.348Z,13.00
2022-10-28T02:48:43.581Z,12.10
2022-10-28T02:51:40.419Z,12.30
2022-10-28T02:54:37.888Z,12.10
2022-10-28T02:57:32.942Z,10.90
2022-10-28T03:00:24.704Z,13.00
2022-10-28T03:03:13.414Z,12.90
2022-10-28T03:06:01.102Z,13.00
2022-10-28T03:08:49.058Z,14.20
2022-10-28T03:11:36.651Z,11.80
2022-10-28T03:14:24.408Z,12.10
2022-10-28T03:17:12.343Z,12.50
2022-10-28T03:20:00.002Z,12.50
2022-10-28T03:22:48.686Z,12.20
2022-10-28T03:25:42.314Z,10.10
2022-10-28T03:28:35.787Z,11.90
2022-10-28T03:31:23.706Z,11.00
2022-10-28T03:34:11.383Z,11.80
2022-10-28T03:36:59.134Z,10.60
2022-10-28T03:39:47.154Z,11.40
2022-10-28T03:42:37.562Z,11.60
2022-10-28T03:48:20.822Z,11.20
2022-10-28T03:51:09.072Z,11.90
2022-10-28T03:53:56.971Z,12.50
2022-10-28T03:56:44.933Z,13.20
2022-10-28T03:59:32.596Z,11.70
2022-10-28T04:02:20.462Z,11.40
2022-10-28T04:05:08.784Z,12.50
2022-10-28T04:07:56.897Z,11.90
2022-10-28T04:10:47.522Z,12.10
2022-10-28T04:13:35.798Z,10.60
2022-10-28T04:16:23.378Z,9.50
2022-10-28T04:19:11.314Z,11.30
2022-10-28T04:21:59.101Z,13.60
2022-10-28T04:24:47.030Z,11.20
2022-10-28T04:27:34.835Z,11.80
2022-10-28T04:30:22.590Z,12.20
2022-10-28T04:33:12.486Z,12.10
2022-10-28T04:35:59.853Z,11.60
2022-10-28T04:38:47.458Z,10.50
2022-10-28T04:41:35.160Z,12.00
2022-10-28T04:44:22.989Z,12.70
2022-10-28T04:47:10.645Z,12.40
2022-10-28T04:49:58.497Z,13.60
2022-10-28T04:52:46.303Z,12.70
2022-10-28T04:55:34.243Z,13.20
2022-10-28T04:58:22.148Z,14.00
2022-10-28T05:01:11.213Z,12.60
2022-10-28T05:03:59.103Z,12.70
2022-10-28T05:06:49.402Z,13.90
2022-10-28T05:09:37.149Z,13.70
2022-10-28T05:12:24.808Z,12.60
2022-10-28T05:15:14.798Z,14.20
2022-10-28T05:18:02.368Z,13.10
2022-10-28T05:20:54.940Z,13.40
2022-10-28T05:23:43.130Z,11.80
2022-10-28T05:26:30.745Z,12.90
2022-10-28T05:29:19.731Z,13.60
2022-10-28T05:32:07.737Z,12.10
2022-10-28T05:34:55.372Z,13.10
2022-10-28T05:37:44.249Z,13.70
2022-10-28T05:40:35.585Z,12.70
2022-10-28T05:43:23.337Z,13.40
2022-10-28T05:46:11.425Z,12.80
2022-10-28T05:49:01.732Z,14.50
2022-10-28T05:51:49.256Z,12.40
2022-10-28T05:54:37.079Z,13.80
2022-10-28T05:57:24.851Z,15.10
2022-10-28T06:00:14.286Z,15.40
2022-10-28T06:03:11.130Z,15.70
2022-10-28T06:05:59.278Z,16.00
2022-10-28T06:08:47.001Z,14.20
2022-10-28T06:11:34.338Z,15.30
2022-10-28T06:14:23.765Z,14.50
2022-10-28T06:17:11.523Z,14.30
2022-10-28T06:19:59.567Z,14.30
2022-10-28T06:22:53.714Z,14.50
2022-10-28T06:25:41.800Z,17.80
2022-10-28T06:28:30.727Z,15.80
2022-10-28T06:31:18.536Z,16.60
2022-10-28T06:34:07.940Z,17.70
2022-10-28T06:36:55.488Z,16.30
2022-10-28T06:39:44.389Z,16.60
2022-10-28T06:42:32.252Z,15.70
2022-10-28T06:45:19.540Z,14.10
2022-10-28T06:48:10.440Z,17.60
2022-10-28T06:50:58.489Z,16.60
2022-10-28T06:53:52.607Z,16.20
2022-10-28T06:56:40.051Z,15.60
2022-10-28T06:59:27.964Z,15.20
2022-10-28T07:02:18.748Z,15.60
2022-10-28T07:05:07.429Z,14.50
2022-10-28T07:07:55.706Z,15.20
2022-10-28T07:10:43.739Z,14.00
2022-10-28T07:13:31.787Z,13.20
2022-10-28T07:16:19.476Z,12.80
2022-10-28T07:19:07.323Z,13.00
2022-10-28T07:21:55.301Z,14.00
2022-10-28T07:24:43.017Z,12.60
2022-10-28T07:27:31.124Z,12.30
2022-10-28T07:30:19.223Z,12.90
2022-10-28T07:33:07.017Z,11.70
2022-10-28T07:35:54.635Z,13.00
2022-10-28T07:38:42.303Z,13.50
2022-10-28T07:41:30.096Z,12.20
2022-10-28T07:44:17.902Z,12.10
2022-10-28T07:47:05.788Z,12.40
2022-10-28T07:49:54.552Z,12.60
2022-10-28T07:52:42.701Z,13.10
2022-10-28T07:55:30.445Z,10.90
2022-10-28T07:58:18.336Z,12.70
2022-10-28T08:01:09.413Z,11.50
2022-10-28T08:03:57.353Z,13.00
2022-10-28T08:06:45.519Z,11.50
2022-10-28T08:09:35.129Z,12.60
2022-10-28T08:12:22.736Z,11.10
2022-10-28T08:15:10.818Z,11.30
2022-10-28T08:17:58.636Z,13.40
2022-10-28T08:20:46.868Z,13.60
2022-10-28T08:23:35.485Z,13.10
2022-10-28T08:26:23.228Z,12.90
2022-10-28T08:29:12.359Z,12.70
2022-10-28T08:32:00.337Z,11.70
2022-10-28T08:34:48.105Z,9.60
2022-10-28T08:37:35.959Z,11.40
2022-10-28T08:40:36.759Z,10.70
2022-10-28T08:43:57.068Z,11.00
2022-10-28T08:47:32.567Z,10.10
2022-10-28T08:50:24.112Z,9.20
2022-10-28T08:53:55.214Z,9.40
2022-10-28T08:56:47.643Z,9.50
2022-10-28T08:59:41.663Z,9.60
2022-10-28T09:02:45.017Z,10.20
2022-10-28T09:05:33.224Z,10.00
2022-10-28T09:08:28.761Z,9.90
2022-10-28T09:11:40.128Z,9.70
2022-10-28T09:14:56.845Z,9.90
2022-10-28T09:18:04.350Z,8.40
2022-10-28T09:20:58.010Z,8.30
2022-10-28T09:23:56.760Z,10.10
2022-10-28T09:26:52.653Z,9.60
2022-10-28T09:30:29.377Z,8.80
2022-10-28T09:33:35.205Z,9.70
2022-10-28T09:36:35.021Z,7.40
2022-10-28T09:39:29.410Z,9.00
2022-10-28T09:42:28.410Z,8.30
2022-10-28T09:45:27.360Z,8.00
2022-10-28T09:48:31.469Z,8.20
2022-10-28T09:52:19.206Z,7.10
2022-10-28T09:55:20.243Z,7.20
2022-10-28T09:58:10.337Z,7.70
2022-10-28T10:00:57.907Z,7.90
2022-10-28T10:03:50.439Z,8.80
2022-10-28T10:06:42.924Z,8.70
2022-10-28T10:09:35.928Z,9.70
2022-10-28T10:12:23.352Z,10.40
2022-10-28T10:15:19.530Z,10.80
2022-10-28T10:18:15.824Z,10.30
2022-10-28T10:21:04.032Z,11.30
2022-10-28T10:23:51.777Z,11.50
2022-10-28T10:26:39.668Z,11.70
2022-10-28T10:29:28.826Z,12.50
2022-10-28T10:32:27.467Z,11.30
2022-10-28T10:35:31.353Z,12.00
2022-10-28T10:38:19.131Z,12.40
2022-10-28T10:41:07.152Z,13.00
2022-10-28T10:43:54.933Z,10.40
2022-10-28T10:46:42.710Z,8.40
2022-10-28T10:49:30.914Z,8.30
2022-10-28T10:52:23.887Z,7.80
2022-10-28T10:55:31.274Z,8.00
2022-10-28T10:58:23.919Z,8.20
2022-10-28T11:01:19.531Z,7.20
2022-10-28T11:04:16.096Z,7.50
2022-10-28T11:07:03.774Z,7.40
2022-10-28T11:09:51.991Z,7.60
2022-10-28T11:12:52.555Z,8.10
2022-10-28T11:15:40.082Z,7.80
2022-10-28T11:18:29.430Z,8.10
2022-10-28T11:21:33.650Z,7.40
2022-10-28T11:24:52.102Z,7.70
2022-10-28T11:28:22.761Z,7.30
2022-10-28T11:31:16.350Z,7.30
2022-10-28T11:34:22.370Z,7.70
2022-10-28T11:37:31.646Z,7.10
2022-10-28T11:41:02.016Z,6.90
2022-10-28T11:44:03.806Z,7.10
2022-10-28T11:47:06.825Z,7.30
2022-10-28T11:50:43.984Z,7.40
2022-10-28T11:54:20.624Z,7.30
2022-10-28T11:57:18.927Z,8.50
2022-10-28T12:00:49.171Z,8.90
2022-10-28T12:04:06.810Z,7.60
2022-10-28T12:07:11.016Z,8.20
2022-10-28T12:10:11.443Z,9.30
2022-10-28T12:13:47.203Z,8.70
2022-10-28T12:17:14.764Z,9.00
2022-10-28T12:20:24.620Z,9.40
2022-10-28T12:23:18.499Z,9.40
2022-10-28T12:26:11.993Z,9.30
2022-10-28T12:29:07.049Z,9.30
2022-10-28T12:32:05.760Z,9.10
2022-10-28T12:35:17.562Z,9.20
2022-10-28T12:38:13.968Z,9.70
2022-10-28T12:41:21.384Z,9.30
2022-10-28T12:44:19.667Z,10.30
2022-10-28T12:47:19.086Z,9.90
2022-10-28T12:50:39.545Z,10.80
2022-10-28T12:53:44.908Z,10.80
2022-10-28T12:56:49.215Z,10.30
2022-10-28T12:59:48.222Z,9.50
2022-10-28T13:02:43.519Z,9.10
2022-10-28T13:06:19.980Z,9.90
2022-10-28T13:09:39.586Z,9.10
2022-10-28T13:13:04.657Z,8.70
2022-10-28T13:16:33.673Z,8.70
2022-10-28T13:19:54.382Z,9.40
2022-10-28T13:23:15.796Z,9.90
2022-10-28T13:26:27.740Z,9.50
2022-10-28T13:29:29.214Z,8.20
2022-10-28T13:32:39.117Z,9.20
2022-10-28T13:35:29.822Z,9.70
2022-10-28T13:38:26.034Z,8.70
2022-10-28T13:41:28.642Z,8.50
2022-10-28T13:44:27.453Z,9.40
2022-10-28T13:47:14.838Z,9.80
2022-10-28T13:50:09.144Z,10.10
2022-10-28T13:53:24.732Z,9.40
2022-10-28T13:56:30.487Z,8.40
2022-10-28T13:59:32.236Z,9.50
2022-10-28T14:02:40.173Z,9.50
2022-10-28T14:05:37.411Z,8.70
2022-10-28T14:08:41.442Z,9.60
2022-10-28T14:11:30.524Z,8.70
2022-10-28T14:14:18.206Z,8.20
2022-10-28T14:17:18.279Z,8.90
2022-10-28T14:20:26.839Z,9.60
2022-10-28T14:23:20.860Z,10.60
2022-10-28T14:26:08.741Z,9.40
2022-10-28T14:28:56.607Z,10.20
2022-10-28T14:31:45.004Z,10.20
2022-10-28T14:34:39.786Z,10.70
2022-10-28T14:38:39.741Z,9.90
2022-10-28T14:42:05.062Z,10.30
2022-10-28T14:45:24.455Z,10.10
2022-10-28T14:48:52.418Z,10.60
2022-10-28T14:51:42.565Z,10.30
2022-10-28T14:54:39.590Z,11.80
2022-10-28T14:57:33.902Z,9.70
2022-10-28T15:00:26.128Z,10.30
2022-10-28T15:03:14.438Z,11.40
2022-10-28T15:06:34.089Z,11.30
2022-10-28T15:09:28.279Z,10.60
2022-10-28T15:12:18.039Z,12.30
2022-10-28T15:15:36.269Z,11.30
2022-10-28T15:18:27.401Z,9.90
2022-10-28T15:21:18.839Z,11.60
2022-10-28T15:24:09.318Z,11.90
2022-10-28T15:26:56.912Z,11.30
2022-10-28T15:29:44.773Z,12.10
2022-10-28T15:32:36.540Z,13.00
2022-10-28T15:35:27.106Z,12.30
2022-10-28T15:38:29.664Z,13.30
2022-10-28T15:41:23.858Z,13.10
2022-10-28T15:44:35.788Z,12.40
2022-10-28T15:47:37.384Z,12.70
2022-10-28T15:50:34.729Z,11.70
2022-10-28T15:53:39.024Z,12.30
2022-10-28T15:56:27.866Z,12.00
2022-10-28T15:59:22.381Z,11.60
2022-10-28T16:02:41.350Z,12.00
2022-10-28T16:05:31.818Z,11.20
2022-10-28T16:08:31.190Z,12.30
2022-10-28T16:11:22.748Z,12.40
2022-10-28T16:14:32.578Z,12.90
2022-10-28T16:17:30.928Z,11.90
2022-10-28T16:20:26.629Z,14.70
2022-10-28T16:23:18.757Z,14.80
2022-10-28T16:26:09.279Z,15.70
2022-10-28T16:28:57.056Z,14.00
2022-10-28T16:31:50.347Z,14.50
2022-10-28T16:34:38.372Z,16.80
2022-10-28T16:37:32.779Z,15.90
2022-10-28T16:40:45.562Z,16.30
2022-10-28T16:43:30.735Z,17.50
2022-10-28T16:46:18.361Z,16.90
2022-10-28T16:49:31.561Z,13.00
2022-10-28T16:52:23.143Z,15.30
2022-10-28T16:55:17.085Z,16.90
2022-10-28T16:58:04.596Z,15.60
2022-10-28T17:00:53.381Z,16.30
2022-10-28T17:03:41.571Z,15.30
2022-10-28T17:06:29.395Z,16.20
2022-10-28T17:09:17.185Z,16.40
2022-10-28T17:12:05.187Z,15.60
2022-10-28T17:14:53.436Z,16.00
2022-10-28T17:17:41.437Z,17.40
2022-10-28T17:20:29.441Z,20.00
2022-10-28T17:23:16.958Z,19.20
2022-10-28T17:26:04.760Z,18.20
2022-10-28T17:28:53.129Z,19.90
2022-10-28T17:31:41.078Z,19.10
2022-10-28T17:34:28.785Z,20.20
2022-10-28T17:37:16.846Z,21.30
2022-10-28T17:40:05.577Z,18.80
2022-10-28T17:42:54.511Z,20.30
2022-10-28T17:45:42.297Z,20.20
2022-10-28T17:48:30.526Z,21.00
2022-10-28T17:51:21.045Z,21.70
2022-10-28T17:54:09.143Z,18.80
2022-10-28T17:56:57.415Z,18.70
2022-10-28T17:59:46.162Z,19.70
2022-10-28T18:02:34.014Z,21.70
2022-10-28T18:05:22.259Z,19.60
2022-10-28T18:08:10.048Z,19.80
2022-10-28T18:10:59.892Z,20.60
2022-10-28T18:13:51.526Z,20.30
2022-10-28T18:16:39.175Z,21.70
2022-10-28T18:19:26.918Z,22.50
2022-10-28T18:22:14.789Z,21.10
2022-10-28T18:25:02.723Z,23.30
2022-10-28T18:27:50.481Z,20.10
2022-10-28T18:30:38.741Z,21.20
2022-10-28T18:33:29.327Z,20.60
2022-10-28T18:36:23.655Z,19.50
2022-10-28T18:39:11.333Z,23.90
2022-10-28T18:41:58.853Z,22.10
2022-10-28T18:44:46.990Z,23.60
2022-10-28T18:47:37.654Z,21.30
2022-10-28T18:50:25.778Z,21.30
2022-10-28T18:53:13.862Z,20.20
2022-10-28T18:56:01.563Z,21.00
2022-10-28T18:58:51.625Z,20.00
2022-10-28T19:01:46.651Z,21.30
2022-10-28T19:04:34.957Z,20.40
2022-10-28T19:07:23.152Z,19.50
2022-10-28T19:10:11.745Z,18.30
2022-10-28T19:13:00.337Z,19.90
2022-10-28T19:15:48.361Z,20.70
2022-10-28T19:18:38.381Z,18.00
2022-10-28T19:21:27.963Z,20.30
2022-10-28T19:24:17.422Z,18.50
2022-10-28T19:27:05.145Z,18.30
2022-10-28T19:29:53.003Z,18.60
2022-10-28T19:32:40.877Z,19.20
2022-10-28T19:35:29.010Z,15.80
2022-10-28T19:38:16.850Z,14.70
2022-10-28T19:41:13.812Z,16.20
2022-10-28T19:44:21.890Z,15.30
2022-10-28T19:47:09.520Z,12.50
2022-10-28T19:49:58.775Z,13.90
2022-10-28T19:52:47.111Z,13.40
2022-10-28T19:55:36.336Z,12.50
2022-10-28T19:58:24.560Z,12.90
2022-10-28T20:01:14.325Z,11.80
2022-10-28T20:04:03.123Z,12.60
2022-10-28T20:06:51.207Z,12.70
2022-10-28T20:09:39.475Z,11.40
2022-10-28T20:12:27.265Z,12.40
2022-10-28T20:15:15.310Z,11.80
2022-10-28T20:18:03.204Z,12.10
2022-10-28T20:20:51.020Z,11.90
2022-10-28T20:23:44.730Z,12.30
2022-10-28T20:26:35.745Z,11.60
2022-10-28T20:29:23.514Z,11.80
2022-10-28T20:32:11.211Z,11.40
2022-10-28T20:34:58.919Z,11.80
2022-10-28T20:37:46.708Z,11.30
2022-10-28T20:40:34.530Z,9.90
2022-10-28T20:43:24.525Z,10.60
2022-10-28T20:46:16.118Z,10.80
2022-10-28T20:49:08.776Z,10.80
2022-10-28T20:51:56.422Z,10.70
2022-10-28T20:54:44.138Z,11.40
2022-10-28T20:57:32.413Z,11.00
2022-10-28T21:00:19.877Z,10.40
2022-10-28T21:03:07.725Z,11.00
2022-10-28T21:05:55.273Z,10.90
2022-10-28T21:08:43.845Z,10.60
2022-10-28T21:11:31.736Z,10.70
2022-10-28T21:14:19.307Z,10.30
2022-10-28T21:17:07.156Z,10.40
2022-10-28T21:22:53.077Z,9.70
2022-10-28T21:25:42.403Z,9.70
2022-10-28T21:28:32.886Z,9.90
2022-10-28T21:31:21.905Z,10.40
2022-10-28T21:34:09.488Z,9.80
2022-10-28T21:36:57.458Z,8.70
2022-10-28T21:39:47.213Z,8.70
2022-10-28T21:42:35.297Z,9.40
2022-10-28T21:45:24.360Z,9.00
2022-10-28T21:48:11.952Z,10.10
2022-10-28T21:51:02.502Z,9.60
2022-10-28T21:53:50.371Z,8.40
2022-10-28T21:56:37.899Z,8.10
2022-10-28T21:59:25.624Z,9.40
2022-10-28T22:02:13.876Z,9.10
2022-10-28T22:05:01.881Z,9.30
2022-10-28T22:07:49.741Z,8.80
2022-10-28T22:10:37.595Z,8.50
2022-10-28T22:13:25.347Z,8.40
2022-10-28T22:16:16.940Z,9.70
2022-10-28T22:19:08.441Z,9.60
2022-10-28T22:21:56.198Z,8.70
2022-10-28T22:24:43.951Z,9.20
2022-10-28T22:27:31.960Z,8.60
2022-10-28T22:30:19.393Z,9.50
2022-10-28T22:33:07.130Z,9.20
2022-10-28T22:35:59.063Z,8.20
2022-10-28T22:38:47.387Z,8.50
2022-10-28T22:41:34.998Z,8.10
2022-10-28T22:44:22.862Z,8.20
2022-10-28T22:47:10.855Z,9.30
2022-10-28T22:49:58.424Z,8.60
2022-10-28T22:52:46.157Z,7.30
2022-10-28T22:55:34.071Z,8.40
2022-10-28T22:58:23.751Z,7.00
2022-10-28T23:01:17.559Z,8.60
2022-10-28T23:04:12.336Z,8.30
2022-10-28T23:06:59.969Z,7.80
2022-10-28T23:09:48.904Z,8.20
2022-10-28T23:12:36.585Z,7.50
2022-10-28T23:15:24.818Z,8.40
2022-10-28T23:18:12.601Z,8.90
2022-10-28T23:21:08.377Z,8.20
2022-10-28T23:23:59.211Z,9.00
2022-10-28T23:26:46.961Z,8.70
2022-10-28T23:29:35.326Z,7.80
2022-10-28T23:32:23.003Z,7.10
2022-10-28T23:35:11.085Z,8.20
2022-10-28T23:38:00.498Z,7.80
2022-10-28T23:41:06.887Z,7.50
2022-10-28T23:43:54.641Z,7.80
2022-10-28T23:46:42.270Z,7.10
2022-10-28T23:49:30.294Z,7.10
2022-10-28T23:52:18.070Z,7.50
2022-10-28T23:55:06.524Z,7.80
2022-10-28T23:57:57.765Z,7.20
